createdAt,value
2022-12-03T00:00:17.064Z,-5.53
2022-12-03T00:02:44.243Z,-5.69
2022-12-03T00:05:11.360Z,-5.57
2022-12-03T00:07:38.471Z,-5.35
2022-12-03T00:10:06.837Z,-5.35
2022-12-03T00:12:33.696Z,-5.67
2022-12-03T00:15:00.539Z,-5.63
2022-12-03T00:17:27.440Z,-5.71
2022-12-03T00:19:54.254Z,-5.82
2022-12-03T00:22:21.103Z,-5.72
2022-12-03T00:24:48.330Z,-5.82
2022-12-03T00:27:15.218Z,-5.80
2022-12-03T00:29:42.048Z,-5.81
2022-12-03T00:32:08.985Z,-5.85
2022-12-03T00:34:35.801Z,-5.96
2022-12-03T00:37:02.656Z,-5.85
2022-12-03T00:39:29.633Z,-5.75
2022-12-03T00:41:56.918Z,-5.73
2022-12-03T00:44:23.737Z,-5.68
2022-12-03T00:46:50.718Z,-5.48
2022-12-03T00:49:17.708Z,-5.49
2022-12-03T00:51:44.558Z,-5.37
2022-12-03T00:54:11.520Z,-5.54
2022-12-03T00:56:38.452Z,-5.26
2022-12-03T00:59:05.358Z,-5.38
2022-12-03T01:01:32.410Z,-5.40
2022-12-03T01:03:59.278Z,-5.29
2022-12-03T01:06:26.199Z,-5.42
2022-12-03T01:08:53.152Z,-5.71
2022-12-03T01:11:20.144Z,-5.55
2022-12-03T01:13:47.806Z,-5.43
2022-12-03T01:16:14.778Z,-5.12
2022-12-03T01:18:41.695Z,-5.06
2022-12-03T01:21:08.615Z,-4.78
2022-12-03T01:23:35.469Z,-5.00
2022-12-03T01:26:02.375Z,-5.03
2022-12-03T01:28:29.266Z,-5.14
2022-12-03T01:30:56.257Z,-5.30
2022-12-03T01:33:23.175Z,-5.20
2022-12-03T01:35:50.115Z,-5.51
2022-12-03T01:38:17.225Z,-5.50
2022-12-03T01:40:44.769Z,-5.63
2022-12-03T01:43:11.620Z,-5.89
2022-12-03T01:45:38.661Z,-6.16
2022-12-03T01:48:05.842Z,-5.93
2022-12-03T01:50:33.893Z,-5.90
2022-12-03T01:53:02.498Z,-6.16
2022-12-03T01:55:30.335Z,-6.31
2022-12-03T01:58:02.209Z,-5.94
2022-12-03T02:00:29.754Z,-6.12
2022-12-03T02:03:15.582Z,-6.19
2022-12-03T02:05:43.237Z,-6.33
2022-12-03T02:08:30.153Z,-6.19
2022-12-03T02:11:00.226Z,-6.06
2022-12-03T02:13:27.207Z,-6.19
2022-12-03T02:15:54.451Z,-6.27
2022-12-03T02:18:21.477Z,-6.57
2022-12-03T02:21:40.444Z,-6.43
2022-12-03T02:24:42.522Z,-6.24
2022-12-03T02:27:09.495Z,-6.33
2022-12-03T02:29:36.441Z,-6.35
2022-12-03T02:32:03.537Z,-6.28
2022-12-03T02:34:48.288Z,-6.10
2022-12-03T02:37:36.038Z,-5.92
2022-12-03T02:40:11.325Z,-5.73
2022-12-03T02:42:39.127Z,-5.70
2022-12-03T02:45:22.218Z,-5.71
2022-12-03T02:48:09.474Z,-5.48
2022-12-03T02:50:46.192Z,-5.43
2022-12-03T02:53:18.025Z,-5.28
2022-12-03T02:55:46.192Z,-5.48
2022-12-03T02:58:31.326Z,-5.38
2022-12-03T03:00:59.857Z,-5.79
2022-12-03T03:03:29.101Z,-5.62
2022-12-03T03:05:57.124Z,-5.71
2022-12-03T03:08:25.544Z,-5.67
2022-12-03T03:10:53.144Z,-5.75
2022-12-03T03:13:21.543Z,-6.23
2022-12-03T03:15:48.931Z,-5.81
2022-12-03T03:18:16.859Z,-6.06
2022-12-03T03:20:44.672Z,-6.02
2022-12-03T03:23:13.933Z,-5.87
2022-12-03T03:25:44.600Z,-6.35
2022-12-03T03:28:13.358Z,-6.17
2022-12-03T03:30:42.396Z,-6.31
2022-12-03T03:33:10.884Z,-6.16
2022-12-03T03:35:38.346Z,-6.11
2022-12-03T03:38:06.870Z,-6.13
2022-12-03T03:40:34.086Z,-6.08
2022-12-03T03:43:01.605Z,-6.10
2022-12-03T03:45:29.614Z,-6.29
2022-12-03T03:47:59.448Z,-6.41
2022-12-03T03:50:30.694Z,-6.37
2022-12-03T03:52:59.586Z,-5.98
2022-12-03T03:55:26.989Z,-6.25
2022-12-03T03:57:54.543Z,-5.88
2022-12-03T04:00:21.914Z,-6.01
2022-12-03T04:02:48.802Z,-6.33
2022-12-03T04:05:19.190Z,-6.35
2022-12-03T04:07:46.965Z,-6.46
2022-12-03T04:10:14.756Z,-6.33
2022-12-03T04:12:41.772Z,-6.31
2022-12-03T04:15:09.354Z,-6.22
2022-12-03T04:17:37.184Z,-6.26
2022-12-03T04:20:04.607Z,-6.21
2022-12-03T04:22:31.619Z,-6.30
2022-12-03T04:24:58.416Z,-6.28
2022-12-03T04:27:25.403Z,-6.30
2022-12-03T04:29:52.328Z,-6.37
2022-12-03T04:32:19.243Z,-6.58
2022-12-03T04:34:46.104Z,-6.73
2022-12-03T04:37:13.240Z,-6.76
2022-12-03T04:39:40.198Z,-6.67
2022-12-03T04:42:07.467Z,-6.34
2022-12-03T04:44:34.631Z,-6.32
2022-12-03T04:47:07.092Z,-6.24
2022-12-03T04:49:35.771Z,-6.17
2022-12-03T04:52:02.896Z,-6.54
2022-12-03T04:54:30.227Z,-6.50
2022-12-03T04:56:57.519Z,-6.25
2022-12-03T04:59:24.411Z,-6.23
2022-12-03T05:01:51.391Z,-6.01
2022-12-03T05:04:18.478Z,-6.28
2022-12-03T05:06:45.576Z,-6.41
2022-12-03T05:09:13.437Z,-6.59
2022-12-03T05:11:41.428Z,-6.65
2022-12-03T05:14:09.706Z,-6.79
2022-12-03T05:16:37.590Z,-6.95
2022-12-03T05:19:06.852Z,-6.85
2022-12-03T05:21:33.686Z,-6.62
2022-12-03T05:24:00.943Z,-6.89
2022-12-03T05:26:28.120Z,-6.73
2022-12-03T05:28:55.094Z,-6.80
2022-12-03T05:31:22.021Z,-7.16
2022-12-03T05:33:48.844Z,-7.14
2022-12-03T05:36:16.069Z,-7.23
2022-12-03T05:38:42.991Z,-7.45
2022-12-03T05:41:09.877Z,-7.48
2022-12-03T05:43:36.672Z,-7.18
2022-12-03T05:46:03.673Z,-7.21
2022-12-03T05:48:30.581Z,-7.34
2022-12-03T05:50:57.417Z,-7.52
2022-12-03T05:53:24.331Z,-7.64
2022-12-03T05:55:51.289Z,-7.40
2022-12-03T05:58:18.323Z,-7.44
2022-12-03T06:00:45.263Z,-7.29
2022-12-03T06:03:12.420Z,-7.34
2022-12-03T06:05:39.479Z,-7.52
2022-12-03T06:08:06.570Z,-7.54
2022-12-03T06:10:33.443Z,-7.42
2022-12-03T06:13:00.366Z,-7.16
2022-12-03T06:15:27.239Z,-7.23
2022-12-03T06:17:54.090Z,-7.16
2022-12-03T06:20:21.346Z,-7.15
2022-12-03T06:22:48.840Z,-7.26
2022-12-03T06:25:16.578Z,-6.86
2022-12-03T06:27:43.467Z,-6.85
2022-12-03T06:30:12.224Z,-6.78
2022-12-03T06:32:39.094Z,-7.28
2022-12-03T06:35:06.252Z,-6.98
2022-12-03T06:37:33.136Z,-7.37
2022-12-03T06:39:59.933Z,-7.15
2022-12-03T06:42:26.801Z,-6.96
2022-12-03T06:44:53.822Z,-7.01
2022-12-03T06:47:20.904Z,-7.00
2022-12-03T06:49:47.793Z,-7.20
2022-12-03T06:52:40.821Z,-7.32
2022-12-03T06:55:08.602Z,-7.22
2022-12-03T06:57:35.556Z,-6.78
2022-12-03T07:20:50.519Z,-6.36
2022-12-03T07:23:17.542Z,-6.25
2022-12-03T07:25:47.475Z,-6.04
2022-12-03T07:28:14.497Z,-5.84
2022-12-03T07:30:41.442Z,-5.93
2022-12-03T07:33:08.337Z,-6.11
2022-12-03T07:35:35.226Z,-5.80
2022-12-03T07:38:02.186Z,-6.07
2022-12-03T07:40:29.133Z,-6.54
2022-12-03T07:42:56.475Z,-6.08
2022-12-03T07:45:23.435Z,-5.94
2022-12-03T07:47:50.430Z,-5.94
2022-12-03T07:50:17.266Z,-5.95
2022-12-03T07:52:44.432Z,-6.08
2022-12-03T07:55:12.177Z,-5.86
2022-12-03T07:57:39.357Z,-5.69
2022-12-03T08:00:07.492Z,-5.92
2022-12-03T08:02:35.500Z,-5.58
2022-12-03T08:05:02.442Z,-5.84
2022-12-03T08:07:29.683Z,-5.73
2022-12-03T08:09:57.387Z,-5.88
2022-12-03T08:12:29.245Z,-5.63
2022-12-03T08:14:56.944Z,-5.50
2022-12-03T08:17:24.927Z,-5.75
2022-12-03T08:19:53.487Z,-5.51
2022-12-03T08:22:20.427Z,-5.18
2022-12-03T08:24:47.628Z,-5.31
2022-12-03T08:27:18.475Z,-5.04
2022-12-03T08:29:46.639Z,-4.99
2022-12-03T08:32:13.975Z,-5.30
2022-12-03T08:34:43.674Z,-5.27
2022-12-03T08:37:19.924Z,-5.15
2022-12-03T08:39:53.153Z,-4.89
2022-12-03T08:42:26.632Z,-4.72
2022-12-03T08:44:54.095Z,-4.48
2022-12-03T08:47:24.779Z,-4.54
2022-12-03T08:49:56.747Z,-5.07
2022-12-03T08:52:31.611Z,-5.08
2022-12-03T08:55:00.297Z,-5.40
2022-12-03T08:57:31.066Z,-5.09
2022-12-03T09:00:14.595Z,-5.35
2022-12-03T09:02:47.730Z,-4.83
2022-12-03T09:05:31.507Z,-4.48
2022-12-03T09:07:59.563Z,-4.43
2022-12-03T09:10:26.507Z,-5.03
2022-12-03T09:12:53.516Z,-5.16
2022-12-03T09:15:20.402Z,-5.30
2022-12-03T09:17:49.937Z,-5.14
2022-12-03T09:20:16.953Z,-5.13
2022-12-03T09:22:43.933Z,-4.78
2022-12-03T09:25:11.359Z,-4.64
2022-12-03T09:27:38.280Z,-4.74
2022-12-03T09:30:06.296Z,-4.86
2022-12-03T09:32:33.243Z,-4.68
2022-12-03T09:35:00.377Z,-4.53
2022-12-03T09:37:27.292Z,-4.41
2022-12-03T09:39:54.154Z,-4.06
2022-12-03T09:42:21.141Z,-4.24
2022-12-03T09:44:48.045Z,-4.48
2022-12-03T09:47:14.970Z,-5.06
2022-12-03T09:49:42.468Z,-4.83
2022-12-03T09:52:24.953Z,-5.42
2022-12-03T09:54:53.525Z,-4.98
2022-12-03T09:57:20.945Z,-5.38
2022-12-03T09:59:47.823Z,-5.22
2022-12-03T10:02:41.612Z,-4.83
2022-12-03T10:05:09.262Z,-5.21
2022-12-03T10:07:36.933Z,-5.08
2022-12-03T10:10:04.950Z,-4.94
2022-12-03T10:12:31.887Z,-4.82
2022-12-03T10:14:58.993Z,-4.67
2022-12-03T10:17:31.062Z,-4.82
2022-12-03T10:19:58.199Z,-4.70
2022-12-03T10:22:25.111Z,-4.74
2022-12-03T10:25:11.530Z,-4.35
2022-12-03T10:27:39.481Z,-4.14
2022-12-03T10:30:19.174Z,-4.83
2022-12-03T10:32:49.521Z,-4.22
2022-12-03T10:35:22.796Z,-4.57
2022-12-03T10:38:03.012Z,-4.42
2022-12-03T10:40:35.701Z,-4.67
2022-12-03T10:43:20.257Z,-4.50
2022-12-03T10:46:09.706Z,-4.38
2022-12-03T10:48:37.001Z,-4.27
2022-12-03T10:51:20.723Z,-4.28
2022-12-03T10:53:49.450Z,-4.38
2022-12-03T10:56:25.244Z,-4.38
2022-12-03T10:58:53.002Z,-4.63
2022-12-03T11:01:22.760Z,-4.51
2022-12-03T11:03:50.815Z,-4.70
2022-12-03T11:06:20.892Z,-4.75
2022-12-03T11:08:57.582Z,-4.47
2022-12-03T11:11:28.148Z,-4.34
2022-12-03T11:13:57.163Z,-4.36
2022-12-03T11:16:39.388Z,-4.45
2022-12-03T11:19:13.028Z,-4.62
2022-12-03T11:22:04.535Z,-4.65
2022-12-03T11:24:41.230Z,-4.99
2022-12-03T11:27:11.177Z,-5.01
2022-12-03T11:30:00.143Z,-4.75
2022-12-03T11:32:39.149Z,-4.89
2022-12-03T11:35:25.683Z,-4.58
2022-12-03T11:37:53.325Z,-4.98
2022-12-03T11:40:20.091Z,-4.57
2022-12-03T11:42:48.499Z,-4.64
2022-12-03T11:45:23.326Z,-4.83
2022-12-03T11:47:59.655Z,-4.79
2022-12-03T11:50:40.219Z,-4.96
2022-12-03T11:53:21.008Z,-4.88
2022-12-03T11:55:51.296Z,-4.90
2022-12-03T11:58:30.355Z,-4.90
2022-12-03T12:00:59.913Z,-5.05
2022-12-03T12:03:33.340Z,-5.09
2022-12-03T12:06:08.894Z,-4.94
2022-12-03T12:08:39.190Z,-5.14
2022-12-03T12:11:36.052Z,-5.00
2022-12-03T12:14:07.232Z,-5.19
2022-12-03T12:16:38.511Z,-5.21
2022-12-03T12:19:32.082Z,-5.45
2022-12-03T12:22:24.582Z,-5.25
2022-12-03T12:24:55.878Z,-5.46
2022-12-03T12:27:34.499Z,-5.23
2022-12-03T12:30:06.384Z,-5.48
2022-12-03T12:32:51.149Z,-5.54
2022-12-03T12:35:26.582Z,-5.74
2022-12-03T12:38:00.859Z,-5.61
2022-12-03T12:40:31.148Z,-5.78
2022-12-03T12:43:10.287Z,-5.79
2022-12-03T12:45:42.480Z,-5.95
2022-12-03T12:48:24.617Z,-6.11
2022-12-03T12:51:14.909Z,-6.01
2022-12-03T12:53:42.677Z,-5.93
2022-12-03T12:56:22.916Z,-6.27
2022-12-03T12:58:50.274Z,-6.23
2022-12-03T13:01:21.997Z,-6.26
2022-12-03T13:03:52.046Z,-6.34
2022-12-03T13:06:26.131Z,-6.45
2022-12-03T13:08:53.929Z,-6.32
2022-12-03T13:11:40.021Z,-6.49
2022-12-03T13:14:15.615Z,-6.40
2022-12-03T13:16:42.622Z,-6.47
2022-12-03T13:19:30.264Z,-6.50
2022-12-03T13:22:01.174Z,-6.66
2022-12-03T13:24:40.771Z,-6.66
2022-12-03T13:27:19.438Z,-6.69
2022-12-03T13:29:49.711Z,-6.89
2022-12-03T13:32:19.678Z,-6.85
2022-12-03T13:34:47.421Z,-6.65
2022-12-03T13:37:21.363Z,-6.73
2022-12-03T13:39:52.228Z,-6.74
2022-12-03T13:42:30.556Z,-6.81
2022-12-03T13:45:18.304Z,-7.00
2022-12-03T13:47:49.610Z,-6.84
2022-12-03T13:50:37.707Z,-6.84
2022-12-03T13:53:27.803Z,-6.98
2022-12-03T13:56:04.540Z,-7.04
2022-12-03T13:58:31.495Z,-7.28
2022-12-03T14:00:58.386Z,-7.01
2022-12-03T14:03:25.337Z,-7.12
2022-12-03T14:05:52.366Z,-7.16
2022-12-03T14:08:19.422Z,-7.24
2022-12-03T14:10:46.351Z,-7.18
2022-12-03T14:13:13.397Z,-7.15
2022-12-03T14:15:40.532Z,-7.35
2022-12-03T14:18:09.849Z,-7.09
2022-12-03T14:20:36.764Z,-7.17
2022-12-03T14:23:03.735Z,-7.15
2022-12-03T14:25:30.731Z,-7.27
2022-12-03T14:27:57.679Z,-7.49
2022-12-03T14:30:24.632Z,-7.20
2022-12-03T14:32:51.664Z,-7.23
2022-12-03T14:35:18.631Z,-7.36
2022-12-03T14:37:45.782Z,-7.15
2022-12-03T14:40:17.948Z,-7.44
2022-12-03T14:42:48.122Z,-7.40
2022-12-03T14:45:15.281Z,-7.49
2022-12-03T14:47:42.309Z,-7.19
2022-12-03T14:50:09.523Z,-7.43
2022-12-03T14:52:36.550Z,-7.34
2022-12-03T14:55:03.557Z,-7.38
2022-12-03T14:57:30.583Z,-7.34
2022-12-03T14:59:57.737Z,-7.23
2022-12-03T15:02:25.109Z,-7.67
2022-12-03T15:04:52.074Z,-7.49
2022-12-03T15:07:19.061Z,-7.54
2022-12-03T15:09:46.214Z,-7.50
2022-12-03T15:12:20.693Z,-7.57
2022-12-03T15:14:47.601Z,-7.79
2022-12-03T15:17:14.601Z,-7.81
2022-12-03T15:19:41.749Z,-7.52
2022-12-03T15:22:08.611Z,-7.65
2022-12-03T15:24:36.022Z,-7.75
2022-12-03T15:27:02.971Z,-7.64
2022-12-03T15:29:29.915Z,-7.51
2022-12-03T15:32:07.126Z,-7.68
2022-12-03T15:34:34.179Z,-7.64
2022-12-03T15:37:01.089Z,-7.57
2022-12-03T15:39:28.311Z,-7.57
2022-12-03T15:41:55.389Z,-7.78
2022-12-03T15:44:22.465Z,-7.65
2022-12-03T15:46:49.428Z,-7.48
2022-12-03T15:49:16.385Z,-7.61
2022-12-03T15:51:43.301Z,-7.72
2022-12-03T15:54:10.478Z,-7.68
2022-12-03T15:56:37.444Z,-7.82
2022-12-03T15:59:04.574Z,-7.58
2022-12-03T16:01:31.685Z,-7.92
2022-12-03T16:03:58.955Z,-7.72
2022-12-03T16:06:26.143Z,-7.69
2022-12-03T16:08:53.430Z,-7.79
2022-12-03T16:11:20.434Z,-7.70
2022-12-03T16:13:47.588Z,-7.89
2022-12-03T16:16:14.657Z,-7.98
2022-12-03T16:18:42.660Z,-7.97
2022-12-03T16:21:09.510Z,-7.82
2022-12-03T16:23:36.625Z,-8.00
2022-12-03T16:26:03.644Z,-7.86
2022-12-03T16:28:30.602Z,-7.99
2022-12-03T16:30:57.682Z,-8.03
2022-12-03T16:33:27.787Z,-7.96
2022-12-03T16:35:55.250Z,-7.77
2022-12-03T16:38:22.141Z,-8.17
2022-12-03T16:40:49.294Z,-7.93
2022-12-03T16:43:16.223Z,-7.86
2022-12-03T16:45:43.257Z,-8.04
2022-12-03T16:48:10.273Z,-7.85
2022-12-03T16:50:37.186Z,-7.76
2022-12-03T16:53:04.184Z,-7.70
2022-12-03T16:55:31.142Z,-7.88
2022-12-03T16:57:58.077Z,-7.91
2022-12-03T17:00:25.162Z,-7.89
2022-12-03T17:02:52.111Z,-7.94
2022-12-03T17:05:19.125Z,-8.04
2022-12-03T17:07:46.218Z,-8.10
2022-12-03T17:10:13.717Z,-8.26
2022-12-03T17:13:07.786Z,-8.17
2022-12-03T17:15:28.147Z,-8.11
2022-12-03T17:17:55.273Z,-8.20
2022-12-03T17:20:22.605Z,-8.34
2022-12-03T17:22:49.494Z,-8.17
2022-12-03T17:25:17.551Z,-8.29
2022-12-03T17:27:45.524Z,-8.12
2022-12-03T17:30:13.415Z,-8.17
2022-12-03T17:32:40.425Z,-8.06
2022-12-03T17:35:08.473Z,-8.09
2022-12-03T17:37:35.952Z,-8.27
2022-12-03T17:40:08.104Z,-8.34
2022-12-03T17:42:35.172Z,-8.18
2022-12-03T17:45:02.344Z,-8.15
2022-12-03T17:47:29.700Z,-8.44
2022-12-03T17:49:57.256Z,-8.30
2022-12-03T17:52:24.578Z,-8.48
2022-12-03T17:57:38.522Z,-8.59
2022-12-03T18:00:06.339Z,-8.58
2022-12-03T18:02:39.236Z,-8.66
2022-12-03T18:05:06.865Z,-8.65
2022-12-03T18:07:33.862Z,-8.52
2022-12-03T18:10:00.954Z,-8.63
2022-12-03T18:12:28.004Z,-8.77
2022-12-03T18:14:55.014Z,-8.87
2022-12-03T18:17:21.940Z,-8.78
2022-12-03T18:19:48.946Z,-8.62
2022-12-03T18:22:16.405Z,-8.85
2022-12-03T18:24:46.114Z,-8.74
2022-12-03T18:27:15.283Z,-8.62
2022-12-03T18:29:42.552Z,-8.55
2022-12-03T18:32:27.276Z,-8.44
2022-12-03T18:34:56.460Z,-8.40
2022-12-03T18:37:27.099Z,-8.49
2022-12-03T18:39:54.709Z,-8.25
2022-12-03T18:42:23.236Z,-8.23
2022-12-03T18:44:51.946Z,-8.26
2022-12-03T18:47:21.512Z,-8.25
2022-12-03T18:49:49.426Z,-8.30
2022-12-03T18:52:22.219Z,-8.09
2022-12-03T18:54:49.339Z,-8.20
2022-12-03T18:57:17.563Z,-8.19
2022-12-03T18:59:44.573Z,-8.37
2022-12-03T19:02:53.806Z,-8.41
2022-12-03T19:05:07.430Z,-8.47
2022-12-03T19:07:34.742Z,-8.39
2022-12-03T19:10:01.696Z,-8.33
2022-12-03T19:12:28.693Z,-8.40
2022-12-03T19:14:55.584Z,-8.49
2022-12-03T19:17:22.508Z,-8.32
2022-12-03T19:19:49.747Z,-8.32
2022-12-03T19:22:16.661Z,-8.34
2022-12-03T19:24:43.597Z,-8.60
2022-12-03T19:27:10.639Z,-8.30
2022-12-03T19:29:37.970Z,-8.39
2022-12-03T19:32:05.385Z,-8.35
2022-12-03T19:34:32.429Z,-8.49
2022-12-03T19:36:59.550Z,-8.32
2022-12-03T19:39:26.730Z,-8.35
2022-12-03T19:41:53.740Z,-8.19
2022-12-03T19:44:20.734Z,-8.37
2022-12-03T19:46:49.641Z,-8.36
2022-12-03T19:49:17.209Z,-8.50
2022-12-03T19:51:44.529Z,-8.42
2022-12-03T19:54:14.796Z,-8.48
2022-12-03T19:56:41.895Z,-8.45
2022-12-03T19:59:13.374Z,-8.64
2022-12-03T20:01:40.777Z,-8.59
2022-12-03T20:04:08.765Z,-8.46
2022-12-03T20:06:37.062Z,-8.42
2022-12-03T20:09:16.726Z,-8.36
2022-12-03T20:11:44.032Z,-8.44
2022-12-03T20:14:24.734Z,-8.58
2022-12-03T20:16:52.003Z,-8.42
2022-12-03T20:19:18.988Z,-8.45
2022-12-03T20:21:45.982Z,-8.39
2022-12-03T20:24:22.755Z,-8.17
2022-12-03T20:26:49.870Z,-8.12
2022-12-03T20:29:16.800Z,-8.32
2022-12-03T20:31:44.055Z,-8.47
2022-12-03T20:34:11.493Z,-8.37
2022-12-03T20:36:38.558Z,-8.21
2022-12-03T20:39:07.954Z,-8.57
2022-12-03T20:41:36.384Z,-8.44
2022-12-03T20:44:04.246Z,-8.11
2022-12-03T20:46:31.829Z,-8.13
2022-12-03T20:48:59.088Z,-8.12
2022-12-03T20:51:29.231Z,-8.36
2022-12-03T20:53:57.036Z,-8.08
2022-12-03T20:56:30.121Z,-8.35
2022-12-03T20:59:00.136Z,-8.32
2022-12-03T21:01:28.192Z,-8.10
2022-12-03T21:03:56.858Z,-8.19
2022-12-03T21:06:26.593Z,-8.01
2022-12-03T21:08:54.931Z,-7.98
2022-12-03T21:11:24.827Z,-8.07
2022-12-03T21:13:53.868Z,-8.03
2022-12-03T21:16:39.805Z,-8.10
2022-12-03T21:19:10.726Z,-8.16
2022-12-03T21:21:37.598Z,-8.20
2022-12-03T21:24:04.695Z,-8.04
2022-12-03T21:26:31.625Z,-8.01
2022-12-03T21:28:58.659Z,-7.97
2022-12-03T21:31:26.826Z,-8.05
2022-12-03T21:33:55.407Z,-8.13
2022-12-03T21:36:24.026Z,-8.06
2022-12-03T21:38:51.016Z,-8.01
2022-12-03T21:41:18.595Z,-7.98
2022-12-03T21:43:45.524Z,-8.13
2022-12-03T21:47:09.876Z,-8.12
2022-12-03T21:49:02.002Z,-8.04
2022-12-03T21:51:28.859Z,-8.23
2022-12-03T21:53:55.767Z,-8.35
2022-12-03T21:56:22.687Z,-8.50
2022-12-03T21:58:49.639Z,-8.57
2022-12-03T22:01:25.905Z,-8.57
2022-12-03T22:03:53.039Z,-8.44
2022-12-03T22:06:20.045Z,-8.47
2022-12-03T22:08:47.601Z,-8.42
2022-12-03T22:11:17.884Z,-8.75
2022-12-03T22:13:45.341Z,-8.59
2022-12-03T22:16:15.234Z,-8.69
2022-12-03T22:18:42.600Z,-8.65
2022-12-03T22:21:12.441Z,-8.81
2022-12-03T22:23:39.779Z,-8.84
2022-12-03T22:26:10.652Z,-8.75
2022-12-03T22:28:37.817Z,-9.11
2022-12-03T22:31:08.881Z,-8.92
2022-12-03T22:33:37.036Z,-8.81
2022-12-03T22:36:07.200Z,-8.75
2022-12-03T22:38:34.596Z,-8.88
2022-12-03T22:41:07.921Z,-8.96
2022-12-03T22:43:35.473Z,-8.92
2022-12-03T22:46:02.747Z,-8.87
2022-12-03T22:48:29.751Z,-9.13
2022-12-03T22:50:56.655Z,-8.85
2022-12-03T22:53:23.576Z,-8.99
2022-12-03T22:55:58.416Z,-8.82
2022-12-03T22:58:27.187Z,-8.84
2022-12-03T23:00:59.754Z,-8.90
2022-12-03T23:03:30.180Z,-8.93
2022-12-03T23:05:57.173Z,-9.17
2022-12-03T23:08:24.117Z,-9.04
2022-12-03T23:10:52.760Z,-9.12
2022-12-03T23:13:20.644Z,-9.15
2022-12-03T23:15:52.241Z,-8.88
2022-12-03T23:18:20.100Z,-9.12
2022-12-03T23:20:50.323Z,-9.13
2022-12-03T23:23:18.683Z,-8.88
2022-12-03T23:25:59.215Z,-8.82
2022-12-03T23:28:26.427Z,-8.99
2022-12-03T23:30:53.643Z,-8.92
2022-12-03T23:33:20.783Z,-8.89
2022-12-03T23:35:47.807Z,-9.00
2022-12-03T23:38:14.988Z,-9.21
2022-12-03T23:40:47.722Z,-9.08
2022-12-03T23:43:15.275Z,-9.13
2022-12-03T23:45:42.143Z,-8.96
2022-12-03T23:48:09.033Z,-9.25
2022-12-03T23:50:39.436Z,-9.29
2022-12-03T23:53:06.410Z,-9.34
2022-12-03T23:55:33.405Z,-9.33
2022-12-03T23:58:00.419Z,-9.41
